createdAt,value
2023-02-23T00:01:22.563Z,56.67
2023-02-23T00:03:50.293Z,36.88
2023-02-23T00:06:18.602Z,49.60
2023-02-23T00:08:47.917Z,51.47
2023-02-23T00:11:16.433Z,41.25
2023-02-23T00:13:46.325Z,45.17
2023-02-23T00:16:18.152Z,48.05
2023-02-23T00:18:48.568Z,47.72
2023-02-23T00:21:17.008Z,42.38
2023-02-23T00:23:49.419Z,46.40
2023-02-23T00:26:16.628Z,50.08
2023-02-23T00:28:43.640Z,44.72
2023-02-23T00:31:11.707Z,50.90
2023-02-23T00:33:39.297Z,44.53
2023-02-23T00:36:08.786Z,58.38
2023-02-23T00:38:36.463Z,47.70
2023-02-23T00:41:08.135Z,47.00
2023-02-23T00:43:37.493Z,52.97
2023-02-23T00:46:08.146Z,47.90
2023-02-23T00:48:35.626Z,47.17
2023-02-23T00:51:04.559Z,50.97
2023-02-23T00:53:31.569Z,53.50
2023-02-23T00:55:59.236Z,55.80
2023-02-23T00:58:27.181Z,40.63
2023-02-23T01:00:53.899Z,41.67
2023-02-23T01:03:20.450Z,49.10
2023-02-23T01:05:49.947Z,50.15
2023-02-23T01:08:17.527Z,49.92
2023-02-23T01:10:52.408Z,53.40
2023-02-23T01:13:20.576Z,50.55
2023-02-23T01:15:52.178Z,47.00
2023-02-23T01:18:20.640Z,50.25
2023-02-23T01:20:47.285Z,48.47
2023-02-23T01:23:15.437Z,59.35
2023-02-23T02:07:28.990Z,46.67
2023-02-23T02:10:13.103Z,54.50
2023-02-23T02:12:41.438Z,54.88
2023-02-23T02:15:16.926Z,54.80
2023-02-23T02:17:58.242Z,58.45
2023-02-23T02:20:33.383Z,47.13
2023-02-23T02:23:08.423Z,48.33
2023-02-23T02:25:34.928Z,58.90
2023-02-23T02:28:35.785Z,56.75
2023-02-23T02:31:15.646Z,53.25
2023-02-23T02:33:53.086Z,53.35
2023-02-23T02:36:37.898Z,55.70
2023-02-23T02:39:34.706Z,44.70
2023-02-23T02:42:08.858Z,49.72
2023-02-23T02:44:44.475Z,55.42
2023-02-23T02:47:36.201Z,47.80
2023-02-23T02:50:15.666Z,62.58
2023-02-23T02:52:55.782Z,51.95
2023-02-23T02:55:26.286Z,57.88
2023-02-23T02:57:58.366Z,54.38
2023-02-23T03:01:10.086Z,48.80
2023-02-23T03:04:04.637Z,56.90
2023-02-23T03:06:57.306Z,51.78
2023-02-23T03:10:02.635Z,62.95
2023-02-23T03:13:04.765Z,49.75
2023-02-23T03:16:15.281Z,55.90
2023-02-23T03:19:30.486Z,58.95
2023-02-23T03:22:30.747Z,50.50
2023-02-23T03:25:54.116Z,51.58
2023-02-23T03:28:45.628Z,46.80
2023-02-23T03:31:41.693Z,58.30
2023-02-23T03:34:36.111Z,58.47
2023-02-23T03:37:37.004Z,64.35
2023-02-23T03:40:37.716Z,56.30
2023-02-23T03:43:31.966Z,53.47
2023-02-23T03:46:20.690Z,54.47
2023-02-23T04:41:13.855Z,65.88
2023-02-23T05:40:25.917Z,64.30
2023-02-23T05:42:58.132Z,55.05
2023-02-23T05:45:24.584Z,61.10
2023-02-23T05:47:52.523Z,63.25
2023-02-23T05:50:19.085Z,55.05
2023-02-23T05:52:45.525Z,61.88
2023-02-23T05:55:12.462Z,61.97
2023-02-23T05:57:40.946Z,65.32
2023-02-23T06:00:08.557Z,60.20
2023-02-23T06:02:36.500Z,62.60
2023-02-23T06:05:03.413Z,55.65
2023-02-23T06:07:29.879Z,56.92
2023-02-23T06:09:56.327Z,63.47
2023-02-23T06:12:23.796Z,65.85
2023-02-23T06:14:50.831Z,54.42
2023-02-23T06:17:17.431Z,57.97
2023-02-23T06:19:43.961Z,60.97
2023-02-23T06:22:10.397Z,71.13
2023-02-23T06:24:37.108Z,52.25
2023-02-23T06:27:04.224Z,59.15
2023-02-23T06:29:30.689Z,58.47
2023-02-23T06:31:59.704Z,60.28
2023-02-23T06:34:27.127Z,63.97
2023-02-23T06:36:53.596Z,57.33
2023-02-23T06:39:20.088Z,65.07
2023-02-23T06:41:46.577Z,71.80
2023-02-23T06:44:13.134Z,69.45
2023-02-23T06:46:39.699Z,78.63
2023-02-23T06:49:06.208Z,65.38
2023-02-23T06:51:32.889Z,59.85
2023-02-23T06:53:59.306Z,56.15
2023-02-23T06:56:25.827Z,63.40
2023-02-23T06:58:52.295Z,59.05
2023-02-23T07:01:19.656Z,54.15
2023-02-23T07:03:46.311Z,54.33
2023-02-23T07:06:12.943Z,69.18
2023-02-23T07:08:39.623Z,56.58
2023-02-23T07:11:08.394Z,58.15
2023-02-23T07:13:35.063Z,51.63
2023-02-23T07:16:01.780Z,56.53
2023-02-23T07:18:28.276Z,64.40
2023-02-23T07:20:54.784Z,63.08
2023-02-23T07:23:22.497Z,67.07
2023-02-23T07:25:54.219Z,59.20
2023-02-23T07:28:21.398Z,74.05
2023-02-23T07:30:49.905Z,53.63
2023-02-23T07:33:16.883Z,70.38
2023-02-23T07:35:45.171Z,63.67
2023-02-23T07:38:13.491Z,50.85
2023-02-23T07:40:39.958Z,58.47
2023-02-23T07:43:07.504Z,55.38
2023-02-23T07:45:34.020Z,53.70
2023-02-23T08:06:47.838Z,50.33
2023-02-23T08:09:14.541Z,56.35
2023-02-23T08:11:41.060Z,53.72
2023-02-23T08:19:30.785Z,69.40
2023-02-23T08:21:57.379Z,61.05
2023-02-23T08:24:25.046Z,72.47
2023-02-23T08:26:51.598Z,70.93
2023-02-23T08:29:18.140Z,62.20
2023-02-23T08:31:44.965Z,58.35
2023-02-23T08:34:11.637Z,58.83
2023-02-23T08:36:38.838Z,52.40
2023-02-23T09:08:41.018Z,55.05
2023-02-23T09:11:07.831Z,60.83
2023-02-23T09:13:34.406Z,62.83
2023-02-23T09:16:00.976Z,52.20
2023-02-23T09:18:29.444Z,47.50
2023-02-23T09:20:56.280Z,54.33
2023-02-23T09:23:24.151Z,51.20
2023-02-23T09:25:50.821Z,53.22
2023-02-23T09:28:19.388Z,57.83
2023-02-23T09:30:47.325Z,69.07
2023-02-23T09:33:14.104Z,51.42
2023-02-23T09:35:41.559Z,51.20
2023-02-23T09:38:08.598Z,47.63
2023-02-23T09:40:55.571Z,43.97
2023-02-23T09:43:37.189Z,53.08
2023-02-23T09:46:21.632Z,57.80
2023-02-23T09:48:48.358Z,47.17
2023-02-23T09:51:21.817Z,42.78
2023-02-23T10:07:26.095Z,49.28
2023-02-23T10:10:30.641Z,46.53
2023-02-23T10:13:20.031Z,42.22
2023-02-23T10:15:49.777Z,52.78
2023-02-23T10:18:56.767Z,43.70
2023-02-23T10:21:41.993Z,46.05
2023-02-23T10:24:19.460Z,34.58
2023-02-23T10:26:51.297Z,38.35
2023-02-23T10:29:41.305Z,38.03
2023-02-23T10:32:39.258Z,52.22
2023-02-23T10:35:14.032Z,46.47
2023-02-23T10:37:40.768Z,45.88
2023-02-23T10:40:14.061Z,37.28
2023-02-23T10:42:40.583Z,42.22
2023-02-23T10:45:18.694Z,44.00
2023-02-23T10:47:46.365Z,42.03
2023-02-23T10:50:14.409Z,39.95
2023-02-23T10:52:45.463Z,36.08
2023-02-23T10:55:27.563Z,46.88
2023-02-23T10:58:05.073Z,48.40
2023-02-23T11:00:34.413Z,43.95
2023-02-23T11:03:03.416Z,41.70
2023-02-23T11:05:33.714Z,41.47
2023-02-23T11:08:21.830Z,42.23
2023-02-23T11:11:01.193Z,58.25
2023-02-23T11:13:33.452Z,53.78
2023-02-23T11:16:11.215Z,43.08
2023-02-23T11:18:39.370Z,44.00
2023-02-23T11:21:11.198Z,49.75
2023-02-23T11:23:40.340Z,44.17
2023-02-23T11:26:23.024Z,48.72
2023-02-23T11:28:56.016Z,44.70
2023-02-23T11:31:30.023Z,44.97
2023-02-23T11:33:58.472Z,45.78
2023-02-23T11:36:34.247Z,50.97
2023-02-23T11:39:14.251Z,38.05
2023-02-23T11:41:40.766Z,41.78
2023-02-23T11:44:07.479Z,44.70
2023-02-23T11:46:37.818Z,40.58
2023-02-23T11:49:12.716Z,54.45
2023-02-23T11:51:46.123Z,42.08
2023-02-23T11:54:33.790Z,47.45
2023-02-23T11:57:02.685Z,45.20
2023-02-23T11:59:33.604Z,43.88
2023-02-23T12:02:30.222Z,48.43
2023-02-23T12:05:03.235Z,46.00
2023-02-23T12:07:38.771Z,48.08
2023-02-23T12:10:15.123Z,51.03
2023-02-23T12:12:53.085Z,46.38
2023-02-23T12:15:42.698Z,53.00
2023-02-23T12:18:23.727Z,45.63
2023-02-23T12:20:54.188Z,43.92
2023-02-23T12:23:26.497Z,46.70
2023-02-23T12:26:12.963Z,44.15
2023-02-23T12:28:47.940Z,44.88
2023-02-23T12:31:31.707Z,45.72
2023-02-23T12:34:05.182Z,44.92
2023-02-23T12:36:43.781Z,38.47
2023-02-23T12:39:27.307Z,56.58
2023-02-23T12:42:09.398Z,40.80
2023-02-23T12:44:49.381Z,46.03
2023-02-23T12:47:33.618Z,49.58
2023-02-23T12:50:13.139Z,43.42
2023-02-23T12:53:18.283Z,47.38
2023-02-23T12:56:21.577Z,47.75
2023-02-23T12:58:59.528Z,54.22
2023-02-23T13:01:39.255Z,53.83
2023-02-23T13:04:36.576Z,47.78
2023-02-23T13:07:20.576Z,51.10
2023-02-23T13:10:02.410Z,49.17
2023-02-23T13:15:27.116Z,55.72
2023-02-23T13:18:11.608Z,45.22
2023-02-23T13:20:49.083Z,50.15
2023-02-23T13:23:40.611Z,49.58
2023-02-23T13:26:44.433Z,48.53
2023-02-23T13:29:49.521Z,42.92
2023-02-23T13:32:22.742Z,56.17
2023-02-23T13:35:07.554Z,54.83
2023-02-23T13:37:45.593Z,46.97
2023-02-23T13:40:39.341Z,42.33
2023-02-23T13:43:30.604Z,49.58
2023-02-23T13:46:22.148Z,41.03
2023-02-23T13:49:02.073Z,50.63
2023-02-23T13:51:44.191Z,49.53
2023-02-23T13:56:47.662Z,49.45
2023-02-23T13:59:20.840Z,48.08
2023-02-23T14:01:50.701Z,60.00
2023-02-23T14:04:34.290Z,56.95
2023-02-23T14:07:09.914Z,48.45
2023-02-23T14:09:58.444Z,46.95
2023-02-23T14:12:32.998Z,47.60
2023-02-23T14:15:28.369Z,55.75
2023-02-23T14:18:16.770Z,48.38
2023-02-23T14:20:54.731Z,65.93
2023-02-23T14:34:13.310Z,60.00
2023-02-23T14:36:44.526Z,61.78
2023-02-23T14:39:26.579Z,63.97
2023-02-23T14:41:59.247Z,74.03
2023-02-23T14:47:14.009Z,72.32
2023-02-23T14:49:54.662Z,67.65
2023-02-23T14:52:28.402Z,72.57
2023-02-23T14:55:13.073Z,72.43
2023-02-23T15:00:32.368Z,68.72
2023-02-23T15:03:05.044Z,73.15
2023-02-23T15:05:36.461Z,78.80
2023-02-23T15:08:08.067Z,75.05
2023-02-23T15:13:31.727Z,75.03
2023-02-23T15:16:03.828Z,88.35
2023-02-23T15:18:35.884Z,73.15
2023-02-23T15:21:12.135Z,85.40
2023-02-23T15:23:38.971Z,74.70
2023-02-23T16:07:22.547Z,87.95
2023-02-23T16:09:49.004Z,88.72
2023-02-23T16:12:36.905Z,97.07
2023-02-23T16:15:13.768Z,94.43
2023-02-23T16:17:45.252Z,89.53
2023-02-23T18:49:40.952Z,142.88
2023-02-23T18:52:09.184Z,146.27
2023-02-23T18:54:37.525Z,145.32
2023-02-23T18:57:05.656Z,141.90
2023-02-23T18:59:33.455Z,143.23
2023-02-23T19:01:59.918Z,137.07
2023-02-23T19:04:26.483Z,145.55
2023-02-23T19:06:53.007Z,141.18
2023-02-23T19:09:21.349Z,134.40
2023-02-23T19:11:51.222Z,138.80
2023-02-23T19:14:22.073Z,136.57
2023-02-23T19:16:50.683Z,143.52
2023-02-23T19:19:17.204Z,133.73
2023-02-23T19:21:43.744Z,130.15
2023-02-23T19:24:10.329Z,142.13
2023-02-23T19:26:38.067Z,134.93
2023-02-23T19:29:05.204Z,135.05
2023-02-23T19:31:32.054Z,130.10
2023-02-23T19:33:59.656Z,119.35
2023-02-23T19:36:30.774Z,123.10
2023-02-23T19:39:05.865Z,119.82
2023-02-23T19:41:34.325Z,114.65
2023-02-23T19:44:01.336Z,125.28
2023-02-23T19:46:28.582Z,115.65
2023-02-23T19:48:55.889Z,111.13
2023-02-23T19:51:23.554Z,113.50
2023-02-23T19:53:53.002Z,111.63
2023-02-23T19:56:19.442Z,104.40
2023-02-23T19:58:46.851Z,107.88
2023-02-23T20:01:16.899Z,112.32
2023-02-23T20:03:44.908Z,110.93
2023-02-23T20:06:13.965Z,107.50
2023-02-23T20:08:41.814Z,98.53
2023-02-23T20:11:09.021Z,92.80
2023-02-23T20:13:38.576Z,90.15
2023-02-23T20:16:09.035Z,90.88
2023-02-23T20:18:38.508Z,87.90
2023-02-23T20:21:17.130Z,91.65
2023-02-23T20:23:45.160Z,100.10
2023-02-23T20:26:19.504Z,95.35
2023-02-23T20:28:46.431Z,96.38
2023-02-23T20:31:21.066Z,100.05
2023-02-23T20:33:51.712Z,96.43
2023-02-23T20:36:20.481Z,104.95
2023-02-23T20:38:47.097Z,114.25
2023-02-23T20:41:13.638Z,100.75
2023-02-23T20:43:40.426Z,106.70
2023-02-23T20:46:07.222Z,107.57
2023-02-23T20:48:35.359Z,111.18
2023-02-23T20:51:02.517Z,99.95
2023-02-23T20:53:29.440Z,104.15
2023-02-23T20:55:56.134Z,101.82
2023-02-23T20:58:25.154Z,117.70
2023-02-23T21:00:57.064Z,115.10
2023-02-23T21:03:25.076Z,116.55
2023-02-23T21:05:51.968Z,113.53
2023-02-23T21:08:19.078Z,116.43
2023-02-23T21:10:45.895Z,111.97
2023-02-23T21:13:13.574Z,110.93
2023-02-23T21:15:41.123Z,116.97
2023-02-23T21:18:08.317Z,116.25
2023-02-23T21:20:35.382Z,120.32
2023-02-23T21:23:04.122Z,127.15
2023-02-23T21:25:30.822Z,124.47
2023-02-23T21:27:57.475Z,122.20
2023-02-23T21:30:28.535Z,121.68
2023-02-23T21:32:56.714Z,118.05
2023-02-23T22:16:15.560Z,119.68
2023-02-23T22:18:42.520Z,115.88
2023-02-23T22:21:11.750Z,113.63
2023-02-23T22:23:40.062Z,114.85
2023-02-23T22:26:07.274Z,116.85
2023-02-23T22:28:34.447Z,119.68
2023-02-23T22:31:06.984Z,117.53
2023-02-23T22:33:35.116Z,128.70
2023-02-23T23:25:34.013Z,103.75
2023-02-23T23:28:00.444Z,104.65
2023-02-23T23:30:29.271Z,107.45
2023-02-23T23:32:57.545Z,105.97
2023-02-23T23:35:25.930Z,102.80
2023-02-23T23:37:52.467Z,110.22
2023-02-23T23:40:24.754Z,101.57
2023-02-23T23:42:51.703Z,102.57
2023-02-23T23:45:24.068Z,112.70
2023-02-23T23:47:50.858Z,104.05
2023-02-23T23:50:17.644Z,103.75
2023-02-23T23:52:45.250Z,104.50
2023-02-23T23:55:14.800Z,119.03
2023-02-23T23:57:42.193Z,97.55
